Impacts TAF Board INFO
FOR SITUATIONAL AWARENESS. NOT TO BE USED FOR FLIGHT PLANNING PURPOSES.
IDs:

KLGA - New York/La Guardia, NY, US

Issued at 0640 UTC 28 Mar 2017
Updated at 0815 UTC 28 Mar 2017
Potential Impact None Slight Moderate High
Time0751Z 28/09Z 28/10Z 28/11Z 28/12Z 28/13Z 28/14Z 28/15Z 28/16Z 28/17Z 28/18Z 28/19Z 28/20Z 28/21Z
Type OBS PRVL
  [TEMP]  
PRVL
  [TEMP]  
PRVL
  [TEMP]  
PRVL
  [TEMP]  
PRVL
  [TEMP]  
PRVL PRVL PRVL PRVL PRVL PRVL PRVL PRVL
VIS 0.25 4
  [6]  
1
  [2]  
1
  [2]  
1
  [2]  
1
  [2]  
1 1 1.5 1.5 1.5 3 3 3
CIG 2 3
  [40]  
10
  [8]  
10
  [8]  
10
  [8]  
10
  [8]  
10 10 8 8 8 10 10 10
Cover OVC OVC
  [OVC]  
OVC
  [OVC]  
OVC
  [OVC]  
OVC
  [OVC]  
OVC
  [OVC]  
OVC OVC OVC OVC OVC OVC OVC OVC
FltCat LIFR LIFR
  [VFR]  
IFR
  [IFR]  
IFR
  [IFR]  
IFR
  [IFR]  
IFR
  [IFR]  
IFR IFR IFR IFR IFR MVFR MVFR MVFR
WX BR BR
  [BR]  
-RA BR
  [-RA BR]  
-RA BR
  [-RA BR]  
-RA BR
  [-RA BR]  
-RA BR
  [-RA BR]  
-RA BR -RA BR BR BR BR -RA BR -RA BR -RA BR
WDir 50 60
[60]
80
[80]
80
[80]
80
[80]
80
[80]
80 80 90 90 90 80 80 80
WSpd 5 6
  [6]  
4
  [4]  
4
  [4]  
4
  [4]  
4
  [4]  
4 4 5 5 5 4 4 4
WGst -- --
  [--]  
--
  [--]  
--
  [--]  
--
  [--]  
--
  [--]  
-- -- -- -- -- -- -- --

Raw TAF
KLGA 280640Z 2807/2906 06006KT 4SM BR OVC003
  TEMPO 2807/2810 6SM BR OVC040
  FM281000 08004KT 1SM -RA BR OVC010
  TEMPO 2810/2814 2SM -RA BR OVC008
  FM281600 09005KT 1 1/2SM BR OVC008
  FM281900 08004KT 3SM -RA BR OVC010
  FM290000 04004KT 3SM -RA BR OVC008
  FM290400 02005KT 5SM BR OVC015


Raw METAR
KLGA 280751Z 05005KT 1/4SM BR OVC002 06/05 A2996 RMK AO2 SFC VIS 3 LTG DSNT SW SLP144 T00610050
KLGA 280725Z 03008KT 1/4SM BR BKN002 OVC029 06/04 A2995 RMK AO2 SFC VIS 2 1/2 T00610044
KLGA 280651Z 05009KT 1/4SM BR VV003 06/04 A2996 RMK AO2 SFC VIS 3/4 RAB17E51 SLP145 P0001 T00610044
KLGA 280642Z 07006KT 1/4SM -RA BR BKN003 OVC007 06/04 A2996 RMK AO2 SFC VIS 1 1/2 RAB17 P0001 T00610044
KLGA 280637Z 06006KT 2 1/2SM -RA BR OVC003 06/05 A2998 RMK AO2 TWR VIS 3 VIS 1 1/4 R22 SW RAB17 P0001 T00610050
KLGA 280616Z 05003KT 3SM BR OVC003 07/05 A2998 RMK AO2 SFC VIS 4 T00670050
KLGA 280551Z 08006KT 3SM BR BKN004 BKN045 OVC055 06/04 A2997 RMK AO2 SFC VIS 4 RAB27E47 SLP149 P0003 60003 T00610044 10094 20056 58012
KLGA 280536Z 05005KT 4SM -RA BR BKN004 BKN043 OVC055 06/04 A2998 RMK AO2 RAB27 P0003 T00610044

METAR Board
Radar Display
Forecast Discussion

FOR SITUATIONAL AWARENESS. NOT TO BE USED FOR FLIGHT PLANNING PURPOSES.

Page loaded:  08:15 UTC  |   01:15 AM Pacific  |   02:15 AM Mountain  |   03:15 AM Central  |   04:15 AM Eastern

 

ADVISORIES

FORECASTS

FORECASTS

OBSERVATIONS

USER TOOLS

ABOUT US